Terminal Aerodrome Forecast
Issued by NWS

Home | Current Version | Previous Version | Text Only | Print | Product List | Glossary On
Versions: 1 2 3 4 5 6 7 8 9 10 11 12 13 14 15 16 17 18 19 20 21 22 23 24 25 26 27
020
FTUS44 KLIX 271959 AAB
TAFMSY
TAF AMD
KMSY 271959Z 2720/2818 18015G25KT P6SM SCT035 SCT060
     FM280600 19006KT 5SM BR BKN025
     FM280700 19005KT 3SM BR BKN015
     FM281100 19004KT 3SM BR BKN003
     FM281500 19006KT P6SM BKN015
     FM281700 18007KT P6SM BKN025=

USA.gov is the U.S. government's official web portal to all federal, state and local government web resources and services.